createdAt,value
2019-04-26T00:00:34.580Z,0.00
2019-04-26T00:01:34.613Z,0.00
2019-04-26T00:02:34.645Z,0.00
2019-04-26T00:03:34.679Z,0.00
2019-04-26T00:04:34.712Z,0.00
2019-04-26T00:05:36.420Z,0.00
2019-04-26T00:06:34.776Z,0.00
2019-04-26T00:07:34.814Z,0.00
2019-04-26T00:08:34.842Z,0.00
2019-04-26T00:09:34.878Z,0.00
2019-04-26T00:10:34.907Z,0.00
2019-04-26T00:11:34.941Z,0.00
2019-04-26T00:12:34.975Z,0.00
2019-04-26T00:13:35.005Z,0.00
2019-04-26T00:14:35.038Z,0.00
2019-04-26T00:15:35.069Z,0.00
2019-04-26T00:16:35.104Z,0.00
2019-04-26T00:17:35.138Z,0.00
2019-04-26T00:18:35.168Z,0.00
2019-04-26T00:19:35.200Z,0.00
2019-04-26T00:20:35.234Z,0.00
2019-04-26T00:21:35.270Z,0.00
2019-04-26T00:22:35.298Z,0.00
2019-04-26T00:23:35.330Z,0.00
2019-04-26T00:24:35.363Z,0.00
2019-04-26T00:25:35.400Z,0.00
2019-04-26T00:26:35.430Z,0.00
2019-04-26T00:27:35.460Z,0.00
2019-04-26T00:28:35.494Z,0.00
2019-04-26T00:29:35.529Z,0.00
2019-04-26T00:30:35.560Z,0.00
2019-04-26T00:31:35.589Z,0.00
2019-04-26T00:32:35.622Z,0.00
2019-04-26T00:33:35.659Z,0.00
2019-04-26T00:34:35.687Z,0.00
2019-04-26T00:35:46.942Z,0.00
2019-04-26T00:36:35.752Z,0.00
2019-04-26T00:37:35.788Z,0.00
2019-04-26T00:38:35.818Z,0.00
2019-04-26T00:39:35.854Z,0.00
2019-04-26T00:40:35.882Z,0.00
2019-04-26T00:41:35.927Z,0.00
2019-04-26T00:42:35.944Z,0.00
2019-04-26T00:43:35.976Z,0.00
2019-04-26T00:44:36.012Z,0.00
2019-04-26T00:45:36.042Z,0.00
2019-04-26T00:46:36.073Z,0.00
2019-04-26T00:47:36.106Z,0.00
2019-04-26T00:48:36.137Z,0.00
2019-04-26T00:49:43.583Z,0.00
2019-04-26T00:50:36.205Z,0.00
2019-04-26T00:51:36.233Z,0.00
2019-04-26T00:52:36.286Z,0.00
2019-04-26T00:53:36.301Z,0.00
2019-04-26T00:54:36.333Z,0.00
2019-04-26T00:55:36.361Z,0.00
2019-04-26T00:56:36.396Z,0.00
2019-04-26T00:57:36.427Z,0.00
2019-04-26T00:58:36.461Z,0.00
2019-04-26T00:59:36.491Z,0.00
2019-04-26T01:00:36.526Z,0.00
2019-04-26T01:01:36.555Z,0.00
2019-04-26T01:02:36.589Z,0.00
2019-04-26T01:03:36.619Z,0.00
2019-04-26T01:04:36.651Z,0.00
2019-04-26T01:05:36.685Z,0.00
2019-04-26T01:06:36.714Z,0.00
2019-04-26T01:07:36.750Z,0.00
2019-04-26T01:08:36.781Z,0.00
2019-04-26T01:09:36.811Z,0.00
2019-04-26T01:10:36.844Z,0.00
2019-04-26T01:11:36.877Z,0.00
2019-04-26T01:12:36.908Z,0.00
2019-04-26T01:13:36.941Z,0.00
2019-04-26T01:14:36.975Z,0.00
2019-04-26T01:15:37.010Z,0.00
2019-04-26T01:16:37.037Z,0.00
2019-04-26T01:17:37.072Z,0.00
2019-04-26T01:18:37.099Z,0.00
2019-04-26T01:19:37.132Z,0.00
2019-04-26T01:20:37.164Z,0.00
2019-04-26T01:21:37.200Z,0.00
2019-04-26T01:22:37.229Z,0.00
2019-04-26T01:23:37.263Z,0.00
2019-04-26T01:24:37.294Z,0.00
2019-04-26T01:25:37.326Z,0.00
2019-04-26T01:26:37.357Z,0.00
2019-04-26T01:27:37.394Z,0.00
2019-04-26T01:28:37.421Z,0.00
2019-04-26T01:29:37.454Z,0.00
2019-04-26T01:30:37.485Z,0.00
2019-04-26T01:31:37.519Z,0.00
2019-04-26T01:32:37.552Z,0.00
2019-04-26T01:33:37.584Z,0.00
2019-04-26T01:34:37.619Z,0.00
2019-04-26T01:35:37.646Z,0.00
2019-04-26T01:36:37.681Z,0.00
2019-04-26T01:37:37.712Z,0.00
2019-04-26T01:38:37.745Z,0.00
2019-04-26T01:39:37.775Z,0.00
2019-04-26T01:40:37.811Z,0.00
2019-04-26T01:41:37.845Z,0.00
2019-04-26T01:42:37.872Z,0.00
2019-04-26T01:43:37.905Z,0.00
2019-04-26T01:44:37.937Z,0.00
2019-04-26T01:45:37.971Z,0.00
2019-04-26T01:46:38.005Z,0.00
2019-04-26T01:47:38.035Z,0.00
2019-04-26T01:48:38.067Z,0.00
2019-04-26T01:49:38.102Z,0.00
2019-04-26T01:50:38.129Z,0.00
2019-04-26T01:51:38.165Z,0.00
2019-04-26T01:52:38.200Z,0.00
2019-04-26T01:53:38.229Z,0.00
2019-04-26T01:54:38.258Z,0.00
2019-04-26T01:55:38.291Z,0.00
2019-04-26T01:56:38.323Z,0.00
2019-04-26T01:57:38.357Z,0.00
2019-04-26T01:58:38.389Z,0.00
2019-04-26T01:59:38.421Z,0.00
2019-04-26T02:00:38.470Z,0.00
2019-04-26T02:01:38.482Z,0.00
2019-04-26T02:02:38.521Z,0.00
2019-04-26T02:03:38.546Z,0.00
2019-04-26T02:04:38.579Z,0.00
2019-04-26T02:05:38.611Z,0.00
2019-04-26T02:06:38.644Z,0.00
2019-04-26T02:07:38.696Z,0.00
2019-04-26T02:08:38.706Z,0.00
2019-04-26T02:09:38.739Z,0.00
2019-04-26T02:10:38.776Z,0.00
2019-04-26T02:11:38.805Z,0.00
2019-04-26T02:12:38.837Z,0.00
2019-04-26T02:13:38.873Z,0.00
2019-04-26T02:14:38.906Z,0.00
2019-04-26T02:15:38.931Z,0.00
2019-04-26T02:16:38.966Z,0.00
2019-04-26T02:17:38.993Z,0.00
2019-04-26T02:18:39.028Z,0.00
2019-04-26T02:19:39.064Z,0.00
2019-04-26T02:20:39.089Z,0.00
2019-04-26T02:21:39.125Z,0.00
2019-04-26T02:22:39.152Z,0.00
2019-04-26T02:23:39.185Z,0.00
2019-04-26T02:24:39.218Z,0.00
2019-04-26T02:25:39.250Z,0.00
2019-04-26T02:26:39.280Z,0.00
2019-04-26T02:27:39.318Z,0.00
2019-04-26T02:28:39.348Z,0.00
2019-04-26T02:29:39.378Z,0.00
2019-04-26T02:30:39.423Z,0.00
2019-04-26T02:31:39.441Z,0.00
2019-04-26T02:32:39.482Z,0.00
2019-04-26T02:33:39.512Z,0.00
2019-04-26T02:34:39.544Z,0.00
2019-04-26T02:35:39.570Z,0.00
2019-04-26T02:36:56.081Z,0.00
2019-04-26T02:37:39.640Z,0.00
2019-04-26T02:38:39.679Z,0.00
2019-04-26T02:39:39.703Z,0.00
2019-04-26T02:40:39.735Z,0.00
2019-04-26T02:41:39.763Z,0.00
2019-04-26T02:42:39.794Z,5.63
2019-04-26T02:43:39.830Z,5.63
2019-04-26T02:44:39.858Z,5.63
2019-04-26T02:45:39.892Z,5.63
2019-04-26T02:46:39.923Z,5.63
2019-04-26T02:47:39.957Z,5.63
2019-04-26T02:48:39.988Z,5.63
2019-04-26T02:49:40.019Z,5.63
2019-04-26T02:50:40.052Z,5.63
2019-04-26T02:51:40.087Z,11.25
2019-04-26T02:52:40.116Z,11.25
2019-04-26T02:53:40.148Z,11.25
2019-04-26T02:54:40.183Z,11.25
2019-04-26T02:55:42.677Z,11.25
2019-04-26T02:56:40.318Z,11.25
2019-04-26T02:57:40.281Z,16.88
2019-04-26T02:58:40.311Z,16.88
2019-04-26T02:59:40.959Z,16.88
2019-04-26T03:00:40.374Z,16.88
2019-04-26T03:01:40.406Z,16.88
2019-04-26T03:02:40.602Z,22.50
2019-04-26T03:03:40.473Z,22.50
2019-04-26T03:04:40.504Z,22.50
2019-04-26T03:05:40.549Z,22.50
2019-04-26T03:06:41.225Z,22.50
2019-04-26T03:07:40.599Z,28.13
2019-04-26T03:08:40.630Z,28.13
2019-04-26T03:09:40.663Z,28.13
2019-04-26T03:10:40.697Z,28.13
2019-04-26T03:11:40.733Z,33.75
2019-04-26T03:12:40.761Z,33.75
2019-04-26T03:13:40.790Z,33.75
2019-04-26T03:14:41.989Z,33.75
2019-04-26T03:15:40.859Z,39.38
2019-04-26T03:16:42.855Z,39.38
2019-04-26T03:17:40.924Z,39.38
2019-04-26T03:18:41.577Z,39.38
2019-04-26T03:19:41.000Z,45.00
2019-04-26T03:20:42.240Z,45.00
2019-04-26T03:21:41.051Z,45.00
2019-04-26T03:22:42.567Z,45.00
2019-04-26T03:23:56.610Z,50.63
2019-04-26T03:24:42.537Z,50.63
2019-04-26T03:25:42.246Z,50.63
2019-04-26T03:26:43.153Z,50.63
2019-04-26T03:27:43.363Z,50.63
2019-04-26T03:28:43.441Z,56.25
2019-04-26T03:29:43.618Z,56.25
2019-04-26T03:30:49.020Z,56.25
2019-04-26T03:31:53.054Z,56.25
2019-04-26T03:32:50.448Z,61.88
2019-04-26T03:33:52.144Z,61.88
2019-04-26T03:34:50.728Z,61.88
2019-04-26T03:35:55.920Z,61.88
2019-04-26T03:36:43.843Z,67.50
2019-04-26T03:37:42.655Z,67.50
2019-04-26T03:38:43.440Z,67.50
2019-04-26T03:39:42.873Z,67.50
2019-04-26T03:40:43.223Z,73.13
2019-04-26T03:41:42.886Z,73.13
2019-04-26T03:42:42.860Z,73.13
2019-04-26T03:43:43.351Z,78.75
2019-04-26T03:44:42.691Z,78.75
2019-04-26T03:45:43.093Z,78.75
2019-04-26T03:46:43.204Z,84.38
2019-04-26T03:47:43.979Z,84.38
2019-04-26T03:48:43.489Z,84.38
2019-04-26T03:49:43.558Z,84.38
2019-04-26T03:50:42.860Z,90.00
2019-04-26T03:51:43.098Z,90.00
2019-04-26T03:52:43.544Z,90.00
2019-04-26T03:53:43.879Z,95.63
2019-04-26T03:54:42.771Z,95.63
2019-04-26T03:55:43.709Z,95.63
2019-04-26T03:56:43.498Z,101.25
2019-04-26T03:57:44.205Z,101.25
2019-04-26T03:58:43.572Z,101.25
2019-04-26T03:59:44.006Z,106.88
2019-04-26T04:00:43.423Z,106.88
2019-04-26T04:01:43.211Z,112.50
2019-04-26T04:02:43.411Z,112.50
2019-04-26T04:03:45.413Z,118.13
2019-04-26T04:04:43.280Z,123.75
2019-04-26T04:05:44.246Z,123.75
2019-04-26T04:07:02.456Z,123.75
2019-04-26T04:07:48.059Z,129.38
2019-04-26T04:08:44.094Z,135.00
2019-04-26T04:09:42.892Z,135.00
2019-04-26T04:10:44.104Z,140.63
2019-04-26T04:11:44.440Z,146.25
2019-04-26T04:12:44.435Z,151.88
2019-04-26T04:13:46.742Z,157.50
2019-04-26T04:14:44.724Z,157.50
2019-04-26T04:15:44.700Z,163.13
2019-04-26T04:16:43.664Z,168.75
2019-04-26T04:17:45.382Z,174.38
2019-04-26T04:18:44.162Z,174.38
2019-04-26T04:19:43.975Z,180.00
2019-04-26T04:20:44.392Z,185.63
2019-04-26T04:21:44.494Z,191.25
2019-04-26T04:22:45.026Z,202.50
2019-04-26T04:23:43.569Z,208.13
2019-04-26T04:24:45.069Z,208.13
2019-04-26T04:25:44.124Z,208.13
2019-04-26T04:26:44.697Z,219.38
2019-04-26T04:27:44.095Z,225.00
2019-04-26T04:28:44.513Z,230.63
2019-04-26T04:29:49.007Z,236.25
2019-04-26T04:30:44.023Z,247.50
2019-04-26T04:31:44.156Z,258.75
2019-04-26T04:32:44.451Z,275.63
2019-04-26T04:33:45.155Z,303.75
2019-04-26T04:34:45.476Z,343.13
2019-04-26T04:35:44.309Z,376.88
2019-04-26T04:36:44.568Z,388.13
2019-04-26T04:38:01.802Z,388.13
2019-04-26T04:38:44.700Z,405.00
2019-04-26T04:39:44.830Z,388.13
2019-04-26T04:40:44.777Z,382.50
2019-04-26T04:41:45.071Z,393.75
2019-04-26T04:42:43.902Z,354.38
2019-04-26T04:43:45.226Z,365.63
2019-04-26T04:44:44.464Z,416.25
2019-04-26T04:45:45.694Z,433.13
2019-04-26T04:46:45.364Z,393.75
2019-04-26T04:47:46.026Z,388.13
2019-04-26T04:48:45.199Z,438.75
2019-04-26T04:49:44.950Z,433.13
2019-04-26T04:50:45.493Z,416.25
2019-04-26T04:51:44.940Z,438.75
2019-04-26T04:52:44.966Z,483.75
2019-04-26T04:53:45.109Z,511.88
2019-04-26T04:54:44.669Z,528.75
2019-04-26T04:55:45.184Z,562.50
2019-04-26T04:56:44.159Z,573.75
2019-04-26T04:57:44.196Z,585.00
2019-04-26T04:58:44.869Z,590.63
2019-04-26T04:59:44.263Z,601.88
2019-04-26T05:00:45.092Z,607.50
2019-04-26T05:01:44.332Z,613.13
2019-04-26T05:02:44.917Z,618.75
2019-04-26T05:03:45.059Z,618.75
2019-04-26T05:04:45.241Z,562.50
2019-04-26T05:05:44.947Z,540.00
2019-04-26T05:06:45.012Z,641.25
2019-04-26T05:07:45.236Z,652.50
2019-04-26T05:08:45.539Z,663.75
2019-04-26T05:09:45.299Z,663.75
2019-04-26T05:10:45.546Z,641.25
2019-04-26T05:11:45.797Z,675.00
2019-04-26T05:12:45.798Z,686.25
2019-04-26T05:13:45.256Z,691.88
2019-04-26T05:14:46.159Z,703.13
2019-04-26T05:15:44.849Z,714.38
2019-04-26T05:16:45.436Z,714.38
2019-04-26T05:17:46.070Z,714.38
2019-04-26T05:18:45.666Z,731.25
2019-04-26T05:19:45.859Z,748.13
2019-04-26T05:20:46.031Z,748.13
2019-04-26T05:21:45.398Z,753.75
2019-04-26T05:22:46.330Z,776.25
2019-04-26T05:23:46.218Z,776.25
2019-04-26T05:24:45.726Z,765.00
2019-04-26T05:25:46.509Z,787.50
2019-04-26T05:26:46.122Z,793.13
2019-04-26T05:27:46.776Z,793.13
2019-04-26T05:28:46.238Z,798.75
2019-04-26T05:29:46.454Z,810.00
2019-04-26T05:30:46.521Z,804.38
2019-04-26T05:31:47.078Z,810.00
2019-04-26T05:32:47.110Z,832.50
2019-04-26T05:33:46.143Z,832.50
2019-04-26T05:34:46.262Z,826.88
2019-04-26T05:35:46.256Z,826.88
2019-04-26T05:36:46.307Z,849.38
2019-04-26T05:37:46.712Z,843.75
2019-04-26T05:38:47.803Z,849.38
2019-04-26T05:39:47.711Z,860.63
2019-04-26T05:40:45.807Z,871.88
2019-04-26T05:41:45.848Z,877.50
2019-04-26T05:42:45.883Z,888.75
2019-04-26T05:43:45.927Z,916.88
2019-04-26T05:44:45.962Z,933.75
2019-04-26T05:45:46.004Z,928.13
2019-04-26T05:46:46.038Z,950.63
2019-04-26T05:47:46.077Z,950.63
2019-04-26T05:48:46.119Z,922.50
2019-04-26T05:49:46.159Z,950.63
2019-04-26T05:50:46.196Z,973.13
2019-04-26T05:51:46.235Z,961.88
2019-04-26T05:52:46.276Z,973.13
2019-04-26T05:53:46.318Z,961.88
2019-04-26T05:54:46.353Z,1063.13
2019-04-26T05:55:46.395Z,1119.38
2019-04-26T05:56:46.436Z,1057.50
2019-04-26T05:57:46.475Z,995.63
2019-04-26T05:58:46.528Z,990.00
2019-04-26T05:59:46.554Z,1006.88
2019-04-26T06:00:46.604Z,1018.13
2019-04-26T06:01:46.678Z,1023.75
2019-04-26T06:02:46.679Z,1046.25
2019-04-26T06:03:46.713Z,1051.88
2019-04-26T06:04:46.754Z,1046.25
2019-04-26T06:05:46.797Z,1063.13
2019-04-26T06:06:46.835Z,1063.13
2019-04-26T06:07:46.876Z,1074.38
2019-04-26T06:08:46.916Z,1102.50
2019-04-26T06:09:46.956Z,1068.75
2019-04-26T06:10:46.999Z,1080.00
2019-04-26T06:11:47.039Z,1119.38
2019-04-26T06:12:47.079Z,1147.50
2019-04-26T06:13:47.124Z,1153.13
2019-04-26T06:14:47.163Z,1141.88
2019-04-26T06:15:47.202Z,1130.63
2019-04-26T06:16:47.246Z,1125.00
2019-04-26T06:17:47.285Z,1119.38
2019-04-26T06:18:47.326Z,1147.50
2019-04-26T06:19:47.366Z,1164.38
2019-04-26T06:20:47.409Z,1186.88
2019-04-26T06:21:47.449Z,1203.75
2019-04-26T06:22:47.492Z,1215.00
2019-04-26T06:23:47.532Z,1215.00
2019-04-26T06:24:47.575Z,1220.63
2019-04-26T06:25:47.618Z,1237.50
2019-04-26T06:26:47.656Z,1265.63
2019-04-26T06:27:47.698Z,1237.50
2019-04-26T06:28:47.741Z,1237.50
2019-04-26T06:29:47.781Z,1265.63
2019-04-26T06:30:47.828Z,1271.25
2019-04-26T06:31:47.865Z,1220.63
2019-04-26T06:32:56.352Z,1243.13
2019-04-26T06:33:47.952Z,1260.00
2019-04-26T06:34:47.991Z,1299.38
2019-04-26T06:35:48.064Z,1288.13
2019-04-26T06:36:48.076Z,1271.25
2019-04-26T06:37:48.119Z,1276.88
2019-04-26T06:38:48.162Z,1282.50
2019-04-26T06:39:48.199Z,1288.13
2019-04-26T06:40:48.248Z,1293.75
2019-04-26T06:41:48.283Z,1316.25
2019-04-26T06:42:48.325Z,1350.00
2019-04-26T06:43:48.373Z,1344.38
2019-04-26T06:44:48.415Z,1338.75
2019-04-26T06:45:48.457Z,1366.88
2019-04-26T06:46:48.495Z,1344.38
2019-04-26T06:47:48.543Z,1378.13
2019-04-26T06:48:48.581Z,1383.75
2019-04-26T06:49:48.625Z,1366.88
2019-04-26T06:50:48.663Z,1350.00
2019-04-26T06:51:48.709Z,1355.63
2019-04-26T06:52:48.751Z,1338.75
2019-04-26T06:53:48.795Z,1305.00
2019-04-26T06:54:48.834Z,1305.00
2019-04-26T06:55:48.876Z,1333.13
2019-04-26T06:56:48.920Z,1366.88
2019-04-26T06:57:48.968Z,1395.00
2019-04-26T06:58:49.007Z,1423.13
2019-04-26T06:59:49.050Z,1378.13
2019-04-26T07:00:49.142Z,1400.63
2019-04-26T07:01:49.132Z,1462.50
2019-04-26T07:02:49.174Z,1400.63
2019-04-26T07:03:49.266Z,1355.63
2019-04-26T07:04:49.261Z,1434.38
2019-04-26T07:05:49.304Z,1451.25
2019-04-26T07:06:49.348Z,1389.38
2019-04-26T07:07:49.388Z,1423.13
2019-04-26T07:08:57.058Z,1496.25
2019-04-26T07:09:49.477Z,1558.13
2019-04-26T07:10:49.602Z,1563.75
2019-04-26T07:11:49.561Z,1490.63
2019-04-26T07:12:49.606Z,1468.13
2019-04-26T07:13:49.647Z,1513.13
2019-04-26T07:14:49.689Z,1563.75
2019-04-26T07:15:49.734Z,1558.13
2019-04-26T07:16:49.776Z,1603.13
2019-04-26T07:17:49.823Z,1546.88
2019-04-26T07:18:49.863Z,1518.75
2019-04-26T07:19:49.908Z,1569.38
2019-04-26T07:20:49.949Z,1575.00
2019-04-26T07:21:50.029Z,1563.75
2019-04-26T07:22:50.037Z,1524.38
2019-04-26T07:23:50.083Z,1524.38
2019-04-26T07:24:50.127Z,1558.13
2019-04-26T07:25:50.168Z,1518.75
2019-04-26T07:26:50.210Z,1575.00
2019-04-26T07:28:03.175Z,1642.50
2019-04-26T07:28:50.305Z,1614.38
2019-04-26T07:29:50.342Z,1558.13
2019-04-26T07:30:50.383Z,1569.38
2019-04-26T07:31:50.427Z,1608.75
2019-04-26T07:32:50.473Z,1597.50
2019-04-26T07:33:50.518Z,1659.38
2019-04-26T07:34:50.559Z,1693.13
2019-04-26T07:35:50.607Z,1563.75
2019-04-26T07:36:50.646Z,1372.50
2019-04-26T07:37:50.691Z,1310.63
2019-04-26T07:38:50.745Z,1462.50
2019-04-26T07:39:50.782Z,1676.25
2019-04-26T07:40:50.821Z,1648.13
2019-04-26T07:41:51.488Z,1698.75
2019-04-26T07:42:50.910Z,1715.63
2019-04-26T07:43:50.954Z,1687.50
2019-04-26T07:44:51.003Z,1766.25
2019-04-26T07:45:51.047Z,1681.88
2019-04-26T07:46:51.091Z,1659.38
2019-04-26T07:47:51.133Z,1670.63
2019-04-26T07:48:51.180Z,1698.75
2019-04-26T07:49:51.226Z,1687.50
2019-04-26T07:50:51.267Z,1890.00
2019-04-26T07:51:51.311Z,1935.00
2019-04-26T07:52:51.358Z,1665.00
2019-04-26T07:53:51.407Z,1608.75
2019-04-26T07:54:51.449Z,1395.00
2019-04-26T07:55:51.493Z,1198.13
2019-04-26T07:56:51.538Z,1057.50
2019-04-26T07:57:51.585Z,1068.75
2019-04-26T07:58:51.629Z,1288.13
2019-04-26T07:59:51.676Z,1231.88
2019-04-26T08:00:51.718Z,1198.13
2019-04-26T08:01:51.765Z,1203.75
2019-04-26T08:02:51.807Z,1186.88
2019-04-26T08:03:51.852Z,1181.25
2019-04-26T08:04:51.896Z,1243.13
2019-04-26T08:05:51.940Z,1316.25
2019-04-26T08:06:51.983Z,1462.50
2019-04-26T08:07:52.028Z,1361.25
2019-04-26T08:08:52.072Z,1372.50
2019-04-26T08:09:59.963Z,1254.38
2019-04-26T08:10:52.162Z,1310.63
2019-04-26T08:11:52.204Z,1209.38
2019-04-26T08:12:52.250Z,1175.63
2019-04-26T08:13:52.292Z,1209.38
2019-04-26T08:14:52.339Z,1220.63
2019-04-26T08:15:52.383Z,1260.00
2019-04-26T08:16:52.423Z,1181.25
2019-04-26T08:17:52.468Z,1181.25
2019-04-26T08:18:52.574Z,1119.38
2019-04-26T08:19:53.548Z,1057.50
2019-04-26T08:20:52.602Z,1023.75
2019-04-26T08:21:52.653Z,1018.13
2019-04-26T08:22:52.683Z,1023.75
2019-04-26T08:23:56.509Z,1029.38
2019-04-26T08:24:52.773Z,1040.63
2019-04-26T08:25:52.818Z,1029.38
2019-04-26T08:26:52.858Z,1158.75
2019-04-26T08:27:52.901Z,1096.88
2019-04-26T08:28:52.943Z,1175.63
2019-04-26T08:29:52.987Z,1108.13
2019-04-26T08:30:53.029Z,1108.13
2019-04-26T08:31:53.630Z,1170.00
2019-04-26T08:32:53.118Z,1248.75
2019-04-26T08:33:53.314Z,1091.25
2019-04-26T08:34:53.201Z,1125.00
2019-04-26T08:35:53.444Z,1333.13
2019-04-26T08:36:53.290Z,1192.50
2019-04-26T08:37:53.329Z,1102.50
2019-04-26T08:38:54.065Z,1113.75
2019-04-26T08:39:53.414Z,1305.00
2019-04-26T08:40:53.457Z,1648.13
2019-04-26T08:41:53.500Z,1158.75
2019-04-26T08:42:57.381Z,1125.00
2019-04-26T08:43:55.788Z,1147.50
2019-04-26T08:44:53.630Z,1271.25
2019-04-26T08:46:02.800Z,1676.25
2019-04-26T08:46:53.715Z,1237.50
2019-04-26T08:47:53.755Z,1113.75
2019-04-26T08:48:53.798Z,1119.38
2019-04-26T08:49:53.840Z,1293.75
2019-04-26T08:50:53.892Z,1271.25
2019-04-26T08:51:55.951Z,1355.63
2019-04-26T08:52:53.971Z,1923.75
2019-04-26T08:53:54.015Z,1563.75
2019-04-26T08:54:54.054Z,1631.25
2019-04-26T08:55:54.095Z,1940.63
2019-04-26T08:56:54.142Z,1130.63
2019-04-26T08:57:54.182Z,1074.38
2019-04-26T08:58:54.226Z,1074.38
2019-04-26T08:59:54.272Z,1141.88
2019-04-26T09:00:54.316Z,1732.50
2019-04-26T09:01:54.359Z,1175.63
2019-04-26T09:02:54.399Z,1130.63
2019-04-26T09:03:54.444Z,1102.50
2019-04-26T09:04:54.486Z,1344.38
2019-04-26T09:05:54.534Z,1170.00
2019-04-26T09:06:54.572Z,1541.25
2019-04-26T09:07:57.564Z,1141.88
2019-04-26T09:08:54.664Z,1046.25
2019-04-26T09:09:57.479Z,1035.00
2019-04-26T09:10:54.747Z,1057.50
2019-04-26T09:11:59.812Z,1080.00
2019-04-26T09:12:54.834Z,1158.75
2019-04-26T09:13:54.883Z,1321.88
2019-04-26T09:14:54.924Z,1057.50
2019-04-26T09:15:54.989Z,1136.25
2019-04-26T09:16:55.009Z,1777.50
2019-04-26T09:17:55.054Z,1209.38
2019-04-26T09:18:59.445Z,1130.63
2019-04-26T09:19:58.024Z,1096.88
2019-04-26T09:20:55.185Z,1080.00
2019-04-26T09:21:55.230Z,1119.38
2019-04-26T09:22:56.628Z,1198.13
2019-04-26T09:23:55.324Z,1411.88
2019-04-26T09:24:59.362Z,1445.63
2019-04-26T09:25:59.348Z,1237.50
2019-04-26T09:26:55.451Z,1704.38
2019-04-26T09:27:55.495Z,1721.25
2019-04-26T09:28:56.544Z,1693.13
2019-04-26T09:29:55.585Z,1884.38
2019-04-26T09:30:55.632Z,1800.00
2019-04-26T09:31:55.676Z,1642.50
2019-04-26T09:32:58.350Z,1462.50
2019-04-26T09:33:55.768Z,1456.88
2019-04-26T09:34:55.813Z,1608.75
2019-04-26T09:35:55.861Z,1215.00
2019-04-26T09:36:55.908Z,1074.38
2019-04-26T09:37:55.953Z,1276.88
2019-04-26T09:38:56.002Z,1299.38
2019-04-26T09:39:56.050Z,1530.00
2019-04-26T09:40:57.200Z,1490.63
2019-04-26T09:41:56.147Z,1389.38
2019-04-26T09:42:56.191Z,1546.88
2019-04-26T09:43:58.874Z,1507.50
2019-04-26T09:44:56.928Z,1485.00
2019-04-26T09:45:56.335Z,1496.25
2019-04-26T09:46:56.379Z,1451.25
2019-04-26T09:47:56.432Z,1411.88
2019-04-26T09:48:56.475Z,1395.00
2019-04-26T09:49:56.527Z,1350.00
2019-04-26T09:50:56.574Z,1136.25
2019-04-26T09:51:56.624Z,1344.38
2019-04-26T09:52:58.222Z,1293.75
2019-04-26T09:53:56.731Z,1231.88
2019-04-26T09:54:56.768Z,1175.63
2019-04-26T09:55:56.821Z,1198.13
2019-04-26T09:56:56.868Z,1170.00
2019-04-26T09:57:58.024Z,1186.88
2019-04-26T09:58:56.965Z,1175.63
2019-04-26T09:59:57.016Z,1130.63
2019-04-26T10:00:57.063Z,1091.25
2019-04-26T10:01:59.514Z,1108.13
2019-04-26T10:02:57.161Z,1164.38
2019-04-26T10:03:57.211Z,1141.88
2019-04-26T10:04:57.264Z,1085.63
2019-04-26T10:05:57.312Z,1108.13
2019-04-26T10:06:59.439Z,1147.50
2019-04-26T10:07:57.409Z,1130.63
2019-04-26T10:08:57.459Z,1113.75
2019-04-26T10:10:00.837Z,1153.13
2019-04-26T10:10:57.556Z,1186.88
2019-04-26T10:11:57.603Z,1125.00
2019-04-26T10:12:57.657Z,1164.38
2019-04-26T10:13:57.715Z,1147.50
2019-04-26T10:14:57.752Z,1220.63
2019-04-26T10:15:58.215Z,1276.88
2019-04-26T10:16:57.853Z,1265.63
2019-04-26T10:17:57.901Z,1276.88
2019-04-26T10:18:58.298Z,1321.88
2019-04-26T10:19:57.998Z,1395.00
2019-04-26T10:20:58.051Z,1423.13
2019-04-26T10:21:58.133Z,1490.63
2019-04-26T10:22:58.144Z,1603.13
2019-04-26T10:23:58.194Z,1586.25
2019-04-26T10:25:02.306Z,1535.63
2019-04-26T10:25:58.297Z,1603.13
2019-04-26T10:26:59.217Z,1659.38
2019-04-26T10:27:58.391Z,1670.63
2019-04-26T10:28:58.441Z,1681.88
2019-04-26T10:30:08.038Z,1755.00
2019-04-26T10:30:58.542Z,1783.13
2019-04-26T10:31:58.589Z,1693.13
2019-04-26T10:33:02.281Z,1732.50
2019-04-26T10:33:58.689Z,1721.25
2019-04-26T10:34:58.745Z,1501.88
2019-04-26T10:35:58.794Z,1659.38
2019-04-26T10:37:01.515Z,1501.88
2019-04-26T10:37:58.891Z,1721.25
2019-04-26T10:38:59.673Z,1490.63
2019-04-26T10:39:58.994Z,1451.25
2019-04-26T10:40:59.044Z,1816.88
2019-04-26T10:41:59.095Z,1929.38
2019-04-26T10:42:59.143Z,1946.25
2019-04-26T10:43:59.196Z,2013.75
2019-04-26T10:44:59.249Z,2070.00
2019-04-26T10:45:59.300Z,1333.13
2019-04-26T10:46:59.820Z,1096.88
2019-04-26T10:47:59.406Z,1681.88
2019-04-26T10:49:08.532Z,1282.50
2019-04-26T10:49:59.499Z,1186.88
2019-04-26T10:50:59.551Z,1648.13
2019-04-26T10:51:59.598Z,1687.50
2019-04-26T10:52:59.649Z,2250.00
2019-04-26T10:54:01.759Z,1760.63
2019-04-26T10:54:59.759Z,2160.00
2019-04-26T10:55:59.795Z,2396.25
2019-04-26T10:56:59.843Z,2413.13
2019-04-26T10:57:59.894Z,2323.13
2019-04-26T10:58:59.942Z,1659.38
2019-04-26T10:59:59.992Z,1462.50
2019-04-26T11:01:00.047Z,1254.38
2019-04-26T11:02:00.094Z,1912.50
2019-04-26T11:03:04.331Z,2210.63
2019-04-26T11:04:00.194Z,2317.50
2019-04-26T11:05:00.242Z,2120.63
2019-04-26T11:06:00.293Z,1918.13
2019-04-26T11:07:02.027Z,1603.13
2019-04-26T11:08:00.392Z,2171.25
2019-04-26T11:09:00.442Z,2143.13
2019-04-26T11:10:02.861Z,1901.25
2019-04-26T11:11:00.546Z,2025.00
2019-04-26T11:12:00.590Z,1912.50
2019-04-26T11:13:00.640Z,1417.50
2019-04-26T11:14:00.689Z,1063.13
2019-04-26T11:15:00.740Z,1603.13
2019-04-26T11:16:02.620Z,1968.75
2019-04-26T11:17:00.834Z,2053.13
2019-04-26T11:18:00.890Z,2013.75
2019-04-26T11:19:02.149Z,2036.25
2019-04-26T11:20:00.982Z,1518.75
2019-04-26T11:21:01.034Z,1597.50
2019-04-26T11:22:01.079Z,1698.75
2019-04-26T11:23:01.124Z,1698.75
2019-04-26T11:24:01.173Z,1710.00
2019-04-26T11:25:01.223Z,1513.13
2019-04-26T11:26:01.918Z,1833.75
2019-04-26T11:27:01.322Z,1518.75
2019-04-26T11:28:01.371Z,1760.63
2019-04-26T11:29:01.419Z,1918.13
2019-04-26T11:30:11.223Z,1040.63
2019-04-26T11:31:01.512Z,995.63
2019-04-26T11:32:02.799Z,1136.25
2019-04-26T11:33:01.609Z,956.25
2019-04-26T11:34:05.296Z,928.13
2019-04-26T11:35:01.935Z,1068.75
2019-04-26T11:36:03.562Z,1164.38
2019-04-26T11:37:01.800Z,1153.13
2019-04-26T11:38:01.898Z,1496.25
2019-04-26T11:39:05.623Z,1428.75
2019-04-26T11:40:01.944Z,1884.38
2019-04-26T11:41:06.094Z,1625.63
2019-04-26T11:42:02.032Z,1209.38
2019-04-26T11:43:02.085Z,1237.50
2019-04-26T11:44:02.123Z,1248.75
2019-04-26T11:45:06.516Z,1636.88
2019-04-26T11:46:04.714Z,1648.13
2019-04-26T11:47:03.290Z,1608.75
2019-04-26T11:48:03.355Z,1423.13
2019-04-26T11:49:03.194Z,1518.75
2019-04-26T11:50:02.509Z,1726.88
2019-04-26T11:51:02.451Z,1636.88
2019-04-26T11:52:03.157Z,1805.63
2019-04-26T11:53:02.536Z,1749.38
2019-04-26T11:54:02.582Z,1856.25
2019-04-26T11:55:02.632Z,1811.25
2019-04-26T11:56:04.512Z,1603.13
2019-04-26T11:57:02.730Z,1485.00
2019-04-26T11:58:02.770Z,1395.00
2019-04-26T11:59:02.815Z,1310.63
2019-04-26T12:00:05.589Z,1271.25
2019-04-26T12:01:02.902Z,1254.38
2019-04-26T12:02:02.950Z,1260.00
2019-04-26T12:03:03.009Z,1366.88
2019-04-26T12:04:03.042Z,1389.38
2019-04-26T12:05:03.095Z,1383.75
2019-04-26T12:06:03.137Z,1563.75
2019-04-26T12:07:03.182Z,1704.38
2019-04-26T12:08:03.230Z,1800.00
2019-04-26T12:09:03.278Z,1738.13
2019-04-26T12:10:05.820Z,1580.63
2019-04-26T12:11:03.371Z,1428.75
2019-04-26T12:12:04.848Z,1366.88
2019-04-26T12:13:05.996Z,1389.38
2019-04-26T12:14:04.071Z,1372.50
2019-04-26T12:15:08.132Z,1288.13
2019-04-26T12:16:03.611Z,1288.13
2019-04-26T12:17:03.658Z,1344.38
2019-04-26T12:18:05.660Z,1355.63
2019-04-26T12:19:03.754Z,1395.00
2019-04-26T12:20:03.805Z,1445.63
2019-04-26T12:21:03.850Z,1451.25
2019-04-26T12:22:04.368Z,1423.13
2019-04-26T12:23:03.944Z,1440.00
2019-04-26T12:24:03.993Z,1366.88
2019-04-26T12:25:07.270Z,1248.75
2019-04-26T12:26:04.090Z,1276.88
2019-04-26T12:27:04.163Z,1260.00
2019-04-26T12:28:06.141Z,1198.13
2019-04-26T12:29:04.232Z,1192.50
2019-04-26T12:30:04.282Z,1254.38